Time;durP1;ratioP1;P1;durP2;ratioP2;P2;SDS_P1;SDS_P2;PMS_P1;PMS_P2;Temp;Humidity;BMP_temperature;BMP_pressure;BME280_temperature;BME280_humidity;BME280_pressure;Samples;Min_cycle;Max_cycle;Signal;HPM_P1;HPM_P2
2023/02/01 00:00:54;;;;;;;8.35;3.80;;;;;;;;;;2081093;28;20112;-86
2023/02/01 00:02:13;;;;;;;9.20;3.60;;;;;;;;;;2082860;28;20029;-87
2023/02/01 00:03:32;;;;;;;11.05;3.83;;;;;;;;;;2083726;28;20025;-85
2023/02/01 00:04:51;;;;;;;10.40;3.88;;;;;;;;;;2083763;28;20104;-86
2023/02/01 00:06:10;;;;;;;12.25;4.03;;;;;;;;;;2083449;28;20021;-86
2023/02/01 00:07:28;;;;;;;11.43;3.13;;;;;;;;;;2083795;28;20018;-86
2023/02/01 00:08:47;;;;;;;14.60;3.80;;;;;;;;;;2079551;28;20448;-87
2023/02/01 00:10:06;;;;;;;17.10;3.88;;;;;;;;;;2078373;28;20029;-87
2023/02/01 00:11:25;;;;;;;11.00;3.67;;;;;;;;;;2081855;28;20509;-87
2023/02/01 00:12:44;;;;;;;13.45;3.00;;;;;;;;;;2079745;28;20025;-88
2023/02/01 00:14:04;;;;;;;18.58;3.83;;;;;;;;;;2080361;28;20029;-86
2023/02/01 00:15:23;;;;;;;8.10;3.40;;;;;;;;;;2083651;28;20041;-86
2023/02/01 00:16:42;;;;;;;12.68;4.05;;;;;;;;;;2072073;28;20041;-88
2023/02/01 00:18:01;;;;;;;11.73;3.50;;;;;;;;;;2081209;28;20033;-86
2023/02/01 00:19:20;;;;;;;12.48;3.30;;;;;;;;;;2084788;28;20052;-84
2023/02/01 00:20:44;;;;;;;7.70;3.20;;;;;;;;;;2078384;28;20029;-85
2023/02/01 00:22:03;;;;;;;12.48;3.22;;;;;;;;;;2082367;28;20029;-85
2023/02/01 00:23:22;;;;;;;13.32;2.92;;;;;;;;;;2085396;28;20387;-85
2023/02/01 00:24:42;;;;;;;13.60;3.22;;;;;;;;;;2083853;28;20481;-84
2023/02/01 00:26:03;;;;;;;16.23;3.30;;;;;;;;;;2079726;28;20038;-85
2023/02/01 00:27:22;;;;;;;5.47;3.10;;;;;;;;;;2079540;28;20505;-87
2023/02/01 00:28:41;;;;;;;10.68;3.53;;;;;;;;;;2082135;28;20045;-84
2023/02/01 00:30:03;;;;;;;12.15;3.72;;;;;;;;;;2077944;28;20037;-84
2023/02/01 00:31:22;;;;;;;10.13;2.97;;;;;;;;;;2085206;28;20044;-84
2023/02/01 00:32:41;;;;;;;7.35;3.58;;;;;;;;;;2083439;28;20046;-85
2023/02/01 00:33:59;;;;;;;13.60;3.63;;;;;;;;;;2078822;28;20379;-84
2023/02/01 00:35:18;;;;;;;17.70;3.20;;;;;;;;;;2079697;28;20452;-84
2023/02/01 00:36:37;;;;;;;16.42;3.90;;;;;;;;;;2079751;28;20116;-85
2023/02/01 00:37:58;;;;;;;11.13;3.55;;;;;;;;;;2079883;28;20104;-85
2023/02/01 00:39:18;;;;;;;8.90;3.33;;;;;;;;;;2082687;28;20025;-85
2023/02/01 00:40:36;;;;;;;13.73;3.15;;;;;;;;;;2081989;28;20033;-85
2023/02/01 00:41:56;;;;;;;7.70;3.40;;;;;;;;;;2083411;28;20065;-85
2023/02/01 00:43:15;;;;;;;7.97;3.17;;;;;;;;;;2084654;28;20021;-84
2023/02/01 00:44:35;;;;;;;17.13;2.88;;;;;;;;;;2083736;28;20033;-87
2023/02/01 00:45:54;;;;;;;10.63;3.20;;;;;;;;;;2082254;28;20057;-86
2023/02/01 00:47:13;;;;;;;6.45;2.85;;;;;;;;;;2083320;28;20510;-87
2023/02/01 00:48:32;;;;;;;10.63;3.00;;;;;;;;;;2080180;28;20029;-86
2023/02/01 00:49:50;;;;;;;10.45;3.72;;;;;;;;;;2081292;28;20037;-85
2023/02/01 00:51:11;;;;;;;13.52;3.53;;;;;;;;;;2083897;28;20044;-84
2023/02/01 00:52:30;;;;;;;6.75;2.60;;;;;;;;;;2082613;28;20041;-85
2023/02/01 00:53:49;;;;;;;8.23;3.38;;;;;;;;;;2084564;28;20014;-84
2023/02/01 00:55:09;;;;;;;9.05;3.30;;;;;;;;;;2079288;28;20112;-84
2023/02/01 00:56:28;;;;;;;10.50;3.47;;;;;;;;;;2082762;28;20101;-87
2023/02/01 00:57:47;;;;;;;5.32;3.10;;;;;;;;;;2080545;28;20034;-84
2023/02/01 00:59:06;;;;;;;8.13;2.75;;;;;;;;;;2080530;28;20025;-84
2023/02/01 01:00:25;;;;;;;8.65;2.70;;;;;;;;;;2077632;28;20033;-85
2023/02/01 01:01:44;;;;;;;14.68;3.30;;;;;;;;;;2078930;28;20113;-85
2023/02/01 01:03:17;;;;;;;11.43;3.38;;;;;;;;;;2080766;28;20057;-85
2023/02/01 01:04:36;;;;;;;4.22;2.00;;;;;;;;;;2080669;28;20522;-84
2023/02/01 01:05:56;;;;;;;12.30;3.38;;;;;;;;;;2081672;28;20127;-85
2023/02/01 01:07:15;;;;;;;10.18;3.38;;;;;;;;;;2082702;28;20030;-84
2023/02/01 01:08:35;;;;;;;12.55;4.03;;;;;;;;;;2082861;28;20049;-84
2023/02/01 01:09:54;;;;;;;13.27;3.90;;;;;;;;;;2083101;28;20507;-82
2023/02/01 01:11:14;;;;;;;19.30;3.60;;;;;;;;;;2081491;28;20124;-83
2023/02/01 01:12:33;;;;;;;15.68;3.63;;;;;;;;;;2079959;28;20037;-84
2023/02/01 01:13:53;;;;;;;11.00;3.40;;;;;;;;;;2075512;28;20077;-85
2023/02/01 01:15:12;;;;;;;9.07;3.67;;;;;;;;;;2080488;28;20030;-85
2023/02/01 01:16:31;;;;;;;8.20;3.55;;;;;;;;;;2086286;28;20052;-85
2023/02/01 01:17:50;;;;;;;11.90;3.40;;;;;;;;;;2083676;28;20014;-85
2023/02/01 01:19:09;;;;;;;7.75;3.92;;;;;;;;;;2081179;28;20041;-85
2023/02/01 01:20:29;;;;;;;8.27;3.28;;;;;;;;;;2076667;28;20096;-84
2023/02/01 01:21:48;;;;;;;12.90;3.75;;;;;;;;;;2079722;28;20052;-85
2023/02/01 01:23:08;;;;;;;16.58;3.75;;;;;;;;;;2081283;28;20030;-85
2023/02/01 01:24:27;;;;;;;11.82;3.13;;;;;;;;;;2087854;28;20037;-85
2023/02/01 01:25:46;;;;;;;9.43;3.88;;;;;;;;;;2083788;28;20029;-85
2023/02/01 01:27:06;;;;;;;14.63;3.90;;;;;;;;;;2077919;28;20536;-83
2023/02/01 01:28:26;;;;;;;12.05;3.47;;;;;;;;;;2085929;28;20021;-84
2023/02/01 01:29:45;;;;;;;10.25;3.35;;;;;;;;;;2080308;28;20025;-85
2023/02/01 01:31:03;;;;;;;9.20;3.22;;;;;;;;;;2083095;28;20025;-84
2023/02/01 01:32:23;;;;;;;11.65;3.25;;;;;;;;;;2080998;28;20049;-85
2023/02/01 01:33:43;;;;;;;11.65;3.20;;;;;;;;;;2085371;28;20029;-86
2023/02/01 01:35:02;;;;;;;7.85;2.78;;;;;;;;;;2079793;28;20021;-85
2023/02/01 01:36:22;;;;;;;12.52;2.95;;;;;;;;;;2082508;28;20486;-85
2023/02/01 01:37:41;;;;;;;15.40;3.53;;;;;;;;;;2082993;28;20037;-86
2023/02/01 01:39:00;;;;;;;7.35;2.22;;;;;;;;;;2083358;28;20038;-86
2023/02/01 01:40:19;;;;;;;10.13;3.70;;;;;;;;;;2082382;28;20037;-86
2023/02/01 01:41:41;;;;;;;8.88;2.83;;;;;;;;;;2088121;28;20513;-86
2023/02/01 01:43:01;;;;;;;7.00;3.78;;;;;;;;;;2086897;28;20386;-86
2023/02/01 01:44:38;;;;;;;10.98;3.15;;;;;;;;;;2086248;28;20032;-86
2023/02/01 01:45:57;;;;;;;8.43;3.40;;;;;;;;;;2083272;28;20022;-84
2023/02/01 01:47:16;;;;;;;12.75;3.50;;;;;;;;;;2080906;28;20029;-87
2023/02/01 01:48:35;;;;;;;10.52;3.60;;;;;;;;;;2079972;28;20128;-85
2023/02/01 01:49:55;;;;;;;15.23;3.45;;;;;;;;;;2080898;28;20028;-84
2023/02/01 01:51:15;;;;;;;10.40;3.58;;;;;;;;;;2080517;28;20040;-84
2023/02/01 01:52:35;;;;;;;10.80;3.10;;;;;;;;;;2081405;28;20029;-85
2023/02/01 01:53:56;;;;;;;10.75;3.25;;;;;;;;;;2087968;28;20021;-85
2023/02/01 01:55:18;;;;;;;12.07;2.88;;;;;;;;;;2088088;28;20509;-85
2023/02/01 01:56:37;;;;;;;5.75;3.35;;;;;;;;;;2089200;28;20474;-85
2023/02/01 01:58:05;;;;;;;13.38;3.00;;;;;;;;;;2081754;28;20022;-85
2023/02/01 01:59:24;;;;;;;9.82;3.30;;;;;;;;;;2087061;28;20029;-85
2023/02/01 02:00:44;;;;;;;10.55;3.40;;;;;;;;;;2081528;28;20615;-85
2023/02/01 02:02:03;;;;;;;5.97;2.78;;;;;;;;;;2080988;28;20053;-85
2023/02/01 02:03:42;;;;;;;9.68;3.33;;;;;;;;;;2082978;28;20351;-85
2023/02/01 02:05:01;;;;;;;11.90;3.15;;;;;;;;;;2085515;28;20029;-85
2023/02/01 02:06:38;;;;;;;9.18;3.50;;;;;;;;;;2083970;28;20025;-85
2023/02/01 02:07:59;;;;;;;13.00;3.67;;;;;;;;;;2085253;28;20029;-84
2023/02/01 02:09:18;;;;;;;9.63;3.05;;;;;;;;;;2082988;28;20053;-84
2023/02/01 02:12:15;;;;;;;4.03;2.60;;;;;;;;;;2085409;28;20061;-84
2023/02/01 02:13:37;;;;;;;5.47;3.00;;;;;;;;;;2081131;28;20029;-84
2023/02/01 02:14:56;;;;;;;9.97;3.10;;;;;;;;;;2083460;28;20045;-84
2023/02/01 02:16:34;;;;;;;9.52;3.50;;;;;;;;;;2079743;28;20775;-85
2023/02/01 02:18:08;;;;;;;10.35;3.90;;;;;;;;;;2085998;28;20136;-84
2023/02/01 02:19:27;;;;;;;14.00;4.00;;;;;;;;;;2083916;28;20037;-86
2023/02/01 02:20:55;;;;;;;19.55;7.03;;;;;;;;;;2080100;28;20065;-85
2023/02/01 02:22:29;;;;;;;12.85;4.63;;;;;;;;;;2081877;28;20041;-86
2023/02/01 02:24:07;;;;;;;16.88;6.70;;;;;;;;;;2085994;28;20037;-85
2023/02/01 02:25:44;;;;;;;17.40;7.05;;;;;;;;;;2084668;28;20026;-85
2023/02/01 02:27:23;;;;;;;10.77;7.07;;;;;;;;;;2084546;28;20026;-85
2023/02/01 02:28:42;;;;;;;17.40;7.93;;;;;;;;;;2087336;28;20037;-85
2023/02/01 02:30:11;;;;;;;16.73;7.32;;;;;;;;;;2085188;28;20057;-85
2023/02/01 02:31:43;;;;;;;22.45;8.70;;;;;;;;;;2083950;28;20022;-85
2023/02/01 02:33:18;;;;;;;17.33;8.68;;;;;;;;;;2086420;28;20509;-85
2023/02/01 02:34:43;;;;;;;19.85;8.65;;;;;;;;;;2083347;28;20112;-84
2023/02/01 02:36:06;;;;;;;18.65;8.82;;;;;;;;;;2082168;28;20598;-84
2023/02/01 02:37:42;;;;;;;13.02;5.35;;;;;;;;;;2080877;28;20068;-85
2023/02/01 02:39:02;;;;;;;12.35;3.72;;;;;;;;;;2082870;28;20041;-85
2023/02/01 02:40:21;;;;;;;9.40;4.13;;;;;;;;;;2084711;28;20041;-85
2023/02/01 02:48:55;;;;;;;16.67;5.28;;;;;;;;;;2083777;28;20488;-85
2023/02/01 02:55:37;;;;;;;13.63;5.60;;;;;;;;;;2083477;28;20033;-85
2023/02/01 03:05:09;;;;;;;16.45;4.13;;;;;;;;;;2085399;28;20498;-86
2023/02/01 03:06:28;;;;;;;10.02;3.88;;;;;;;;;;2083600;28;20088;-86
2023/02/01 03:07:50;;;;;;;10.82;4.68;;;;;;;;;;2085675;28;20394;-85
2023/02/01 03:09:38;;;;;;;9.73;4.35;;;;;;;;;;2082394;28;20064;-85
2023/02/01 03:10:59;;;;;;;16.13;4.72;;;;;;;;;;2082386;28;20092;-86
2023/02/01 03:13:58;;;;;;;9.57;3.65;;;;;;;;;;2084346;28;20501;-86
2023/02/01 03:15:18;;;;;;;6.47;3.72;;;;;;;;;;2082475;28;20033;-86
2023/02/01 03:16:42;;;;;;;9.88;4.10;;;;;;;;;;2084043;28;20638;-87
2023/02/01 03:18:03;;;;;;;10.30;4.53;;;;;;;;;;2084657;28;20059;-87
2023/02/01 03:19:25;;;;;;;12.73;4.28;;;;;;;;;;2082149;28;20030;-88
2023/02/01 03:20:46;;;;;;;8.75;4.43;;;;;;;;;;2086853;28;20037;-88
2023/02/01 03:22:11;;;;;;;11.98;4.32;;;;;;;;;;2083997;28;20034;-87
2023/02/01 03:23:33;;;;;;;9.27;4.90;;;;;;;;;;2085200;28;20045;-88
2023/02/01 03:24:54;;;;;;;10.20;4.53;;;;;;;;;;2085887;28;20053;-89
2023/02/01 03:26:15;;;;;;;8.70;4.70;;;;;;;;;;2088450;28;20021;-87
2023/02/01 03:27:37;;;;;;;14.93;4.97;;;;;;;;;;2085553;28;20030;-88
2023/02/01 03:28:59;;;;;;;7.55;4.53;;;;;;;;;;2091353;28;20417;-88
2023/02/01 03:30:22;;;;;;;10.50;4.78;;;;;;;;;;2088110;28;20557;-88
2023/02/01 03:31:41;;;;;;;10.93;5.22;;;;;;;;;;2085813;28;20049;-89
2023/02/01 03:33:02;;;;;;;14.77;6.45;;;;;;;;;;2081133;28;20030;-89
2023/02/01 03:34:21;;;;;;;13.65;4.93;;;;;;;;;;2089464;28;20036;-88
2023/02/01 03:35:47;;;;;;;21.40;7.20;;;;;;;;;;2083790;28;20526;-88
2023/02/01 03:37:08;;;;;;;13.48;6.13;;;;;;;;;;2084287;28;20033;-89
2023/02/01 03:38:27;;;;;;;13.93;5.93;;;;;;;;;;2083293;28;20029;-88
2023/02/01 03:39:48;;;;;;;13.05;5.30;;;;;;;;;;2080954;28;20034;-88
2023/02/01 03:41:22;;;;;;;11.45;5.65;;;;;;;;;;2085187;28;20017;-88
2023/02/01 03:42:45;;;;;;;15.95;5.60;;;;;;;;;;2082979;28;20037;-89
2023/02/01 03:44:06;;;;;;;14.60;5.82;;;;;;;;;;2086640;28;20021;-88
2023/02/01 03:45:35;;;;;;;13.98;4.43;;;;;;;;;;2086332;28;20029;-89
2023/02/01 03:47:01;;;;;;;18.08;6.40;;;;;;;;;;2085888;28;20034;-89
2023/02/01 03:48:22;;;;;;;10.98;5.18;;;;;;;;;;2084523;28;20025;-88
2023/02/01 03:49:45;;;;;;;11.48;5.20;;;;;;;;;;2083899;28;20108;-89
2023/02/01 03:51:06;;;;;;;8.98;4.68;;;;;;;;;;2080152;28;20030;-88
2023/02/01 03:52:28;;;;;;;9.85;4.68;;;;;;;;;;2083675;28;20030;-88
2023/02/01 03:53:48;;;;;;;8.88;2.97;;;;;;;;;;2081321;28;20494;-89
2023/02/01 03:55:08;;;;;;;7.90;4.20;;;;;;;;;;2081975;28;20025;-88
2023/02/01 03:56:28;;;;;;;12.88;4.53;;;;;;;;;;2071046;28;20061;-88
2023/02/01 03:58:07;;;;;;;15.23;4.47;;;;;;;;;;2085838;28;20024;-89
2023/02/01 03:59:26;;;;;;;7.50;4.35;;;;;;;;;;2082165;28;20029;-87
2023/02/01 04:00:49;;;;;;;5.35;4.03;;;;;;;;;;2083020;28;20036;-87
2023/02/01 04:02:10;;;;;;;10.00;3.95;;;;;;;;;;2082481;28;20030;-87
2023/02/01 04:03:29;;;;;;;8.90;4.13;;;;;;;;;;2085744;28;20022;-86
2023/02/01 04:04:48;;;;;;;8.27;4.70;;;;;;;;;;2084158;28;20473;-90
2023/02/01 04:06:08;;;;;;;13.23;4.53;;;;;;;;;;2079541;28;20487;-86
2023/02/01 04:07:26;;;;;;;6.55;4.00;;;;;;;;;;2081737;28;20025;-87
2023/02/01 04:08:46;;;;;;;10.48;4.07;;;;;;;;;;2085898;28;20029;-87
2023/02/01 04:10:05;;;;;;;11.73;3.80;;;;;;;;;;2083971;28;20026;-87
2023/02/01 04:11:24;;;;;;;9.95;4.03;;;;;;;;;;2084129;28;20029;-86
2023/02/01 04:12:43;;;;;;;7.50;3.50;;;;;;;;;;2082037;28;20029;-87
2023/02/01 04:14:04;;;;;;;7.55;3.25;;;;;;;;;;2084633;28;20033;-87
2023/02/01 04:15:23;;;;;;;9.13;3.33;;;;;;;;;;2085165;28;20025;-87
2023/02/01 04:16:42;;;;;;;9.60;3.83;;;;;;;;;;2083651;28;20506;-87
2023/02/01 04:18:01;;;;;;;10.05;3.92;;;;;;;;;;2082312;28;20030;-87
2023/02/01 04:19:20;;;;;;;10.73;4.03;;;;;;;;;;2086613;28;20018;-87
2023/02/01 04:20:39;;;;;;;8.25;4.45;;;;;;;;;;2090440;28;20021;-86
2023/02/01 04:21:58;;;;;;;12.05;5.03;;;;;;;;;;2084166;28;20045;-85
2023/02/01 04:23:17;;;;;;;6.93;4.18;;;;;;;;;;2084831;28;20037;-86
2023/02/01 04:24:36;;;;;;;10.43;3.95;;;;;;;;;;2083586;28;20041;-86
2023/02/01 04:25:59;;;;;;;10.57;4.03;;;;;;;;;;2079216;28;20030;-86
2023/02/01 04:27:18;;;;;;;12.25;3.97;;;;;;;;;;2090252;28;20025;-86
2023/02/01 04:28:37;;;;;;;11.25;3.80;;;;;;;;;;2086597;28;20470;-86
2023/02/01 04:29:56;;;;;;;10.32;3.92;;;;;;;;;;2085734;28;20037;-86
2023/02/01 04:31:15;;;;;;;12.25;3.58;;;;;;;;;;2082829;28;20021;-86
2023/02/01 04:32:35;;;;;;;14.82;4.30;;;;;;;;;;2083917;28;20037;-86
2023/02/01 04:33:54;;;;;;;8.20;3.63;;;;;;;;;;2084915;28;20029;-87
2023/02/01 04:35:14;;;;;;;13.85;3.60;;;;;;;;;;2084101;28;20053;-87
2023/02/01 04:36:32;;;;;;;6.47;3.75;;;;;;;;;;2081141;28;20147;-87
2023/02/01 04:37:51;;;;;;;90.93;41.15;;;;;;;;;;2086217;28;20037;-87
2023/02/01 04:39:10;;;;;;;255.52;107.70;;;;;;;;;;2083935;28;20057;-87
2023/02/01 04:40:33;;;;;;;74.88;31.63;;;;;;;;;;2082992;28;20037;-86
2023/02/01 04:41:52;;;;;;;35.05;16.00;;;;;;;;;;2082928;28;20029;-86
2023/02/01 04:43:11;;;;;;;45.70;19.27;;;;;;;;;;2084717;28;20021;-86
2023/02/01 04:44:30;;;;;;;27.88;11.90;;;;;;;;;;2086962;28;20029;-88
2023/02/01 04:45:49;;;;;;;15.00;4.45;;;;;;;;;;2082647;28;20030;-87
2023/02/01 04:47:09;;;;;;;13.88;3.85;;;;;;;;;;2086214;28;20022;-87
2023/02/01 04:48:29;;;;;;;7.68;4.10;;;;;;;;;;2084778;28;20021;-87
2023/02/01 04:49:48;;;;;;;10.23;5.10;;;;;;;;;;2082677;28;20053;-87
2023/02/01 04:51:07;;;;;;;13.45;4.43;;;;;;;;;;2081305;28;20026;-87
2023/02/01 04:52:27;;;;;;;12.55;4.80;;;;;;;;;;2079932;28;20026;-87
2023/02/01 04:53:46;;;;;;;14.80;3.38;;;;;;;;;;2087907;28;20025;-86
2023/02/01 04:55:05;;;;;;;12.10;5.40;;;;;;;;;;2083171;28;20034;-85
2023/02/01 04:56:24;;;;;;;15.95;3.92;;;;;;;;;;2079254;28;20037;-85
2023/02/01 04:57:43;;;;;;;12.65;4.78;;;;;;;;;;2083849;28;20021;-86
2023/02/01 04:59:02;;;;;;;9.88;3.83;;;;;;;;;;2080583;28;20038;-87
2023/02/01 05:00:21;;;;;;;7.68;4.07;;;;;;;;;;2078723;28;20029;-86
2023/02/01 05:01:40;;;;;;;11.85;4.00;;;;;;;;;;2083734;28;20112;-86
2023/02/01 05:02:59;;;;;;;11.02;3.92;;;;;;;;;;2085328;28;20025;-86
2023/02/01 05:04:18;;;;;;;7.35;3.13;;;;;;;;;;2083781;28;20107;-86
2023/02/01 05:05:37;;;;;;;6.60;4.05;;;;;;;;;;2085876;28;20021;-86
2023/02/01 05:06:56;;;;;;;7.45;3.30;;;;;;;;;;2081821;28;20108;-85
2023/02/01 05:08:15;;;;;;;7.97;2.97;;;;;;;;;;2084561;28;20116;-86
2023/02/01 05:09:34;;;;;;;9.38;3.17;;;;;;;;;;2084202;28;20030;-85
2023/02/01 05:10:53;;;;;;;7.15;3.15;;;;;;;;;;2080833;28;20021;-86
2023/02/01 05:13:50;;;;;;;11.57;4.15;;;;;;;;;;2081264;28;20065;-86
2023/02/01 05:15:09;;;;;;;14.07;3.65;;;;;;;;;;2083600;28;20017;-88
2023/02/01 05:16:28;;;;;;;8.23;3.60;;;;;;;;;;2081644;28;20025;-86
2023/02/01 05:17:46;;;;;;;14.30;3.45;;;;;;;;;;2086309;28;20025;-88
2023/02/01 05:19:05;;;;;;;9.45;3.58;;;;;;;;;;2082881;28;20037;-87
2023/02/01 05:20:24;;;;;;;14.25;3.85;;;;;;;;;;2086039;28;20033;-88
2023/02/01 05:21:43;;;;;;;12.10;3.92;;;;;;;;;;2086766;28;20055;-88
2023/02/01 05:23:02;;;;;;;8.00;3.22;;;;;;;;;;2088150;28;20033;-87
2023/02/01 05:24:21;;;;;;;8.70;3.78;;;;;;;;;;2088030;28;20041;-85
2023/02/01 05:25:39;;;;;;;9.32;4.30;;;;;;;;;;2086054;28;20025;-88
2023/02/01 05:26:58;;;;;;;11.73;4.07;;;;;;;;;;2085848;28;20028;-88
2023/02/01 05:28:17;;;;;;;12.63;3.78;;;;;;;;;;2086350;28;20085;-86
2023/02/01 05:29:36;;;;;;;8.10;3.47;;;;;;;;;;2086204;28;20033;-89
2023/02/01 05:30:55;;;;;;;13.20;3.65;;;;;;;;;;2087988;28;20403;-88
2023/02/01 05:32:14;;;;;;;9.80;3.35;;;;;;;;;;2085990;28;20473;-88
2023/02/01 05:33:33;;;;;;;11.15;3.75;;;;;;;;;;2085157;28;20030;-89
2023/02/01 05:34:52;;;;;;;8.75;3.83;;;;;;;;;;2082376;28;20084;-87
2023/02/01 05:36:11;;;;;;;6.63;3.40;;;;;;;;;;2088260;28;20045;-87
2023/02/01 05:37:30;;;;;;;9.95;3.58;;;;;;;;;;2084310;28;20030;-88
2023/02/01 05:38:50;;;;;;;13.75;3.72;;;;;;;;;;2084861;28;20033;-87
2023/02/01 05:40:09;;;;;;;9.38;3.47;;;;;;;;;;2084641;28;20052;-88
2023/02/01 05:41:30;;;;;;;9.15;3.80;;;;;;;;;;2086363;28;20026;-88
2023/02/01 05:42:49;;;;;;;13.57;4.45;;;;;;;;;;2074943;28;20813;-87
2023/02/01 05:44:08;;;;;;;16.52;4.88;;;;;;;;;;2081821;28;20468;-86
2023/02/01 05:45:27;;;;;;;8.00;4.07;;;;;;;;;;2088021;28;20072;-86
2023/02/01 05:46:46;;;;;;;9.80;4.05;;;;;;;;;;2081353;28;20030;-85
2023/02/01 05:48:04;;;;;;;12.95;3.10;;;;;;;;;;2079874;28;20112;-86
2023/02/01 05:49:23;;;;;;;15.73;4.30;;;;;;;;;;2083608;28;20033;-86
2023/02/01 05:50:43;;;;;;;6.30;3.13;;;;;;;;;;2082210;28;20038;-89
2023/02/01 05:52:03;;;;;;;10.38;3.65;;;;;;;;;;2081179;28;20493;-86
2023/02/01 05:53:24;;;;;;;5.88;2.80;;;;;;;;;;2085356;28;20452;-85
2023/02/01 05:54:43;;;;;;;10.40;3.78;;;;;;;;;;2087256;28;20025;-87
2023/02/01 05:56:02;;;;;;;12.38;3.67;;;;;;;;;;2086332;28;20037;-88
2023/02/01 05:57:40;;;;;;;6.88;3.10;;;;;;;;;;2083571;28;20053;-85
2023/02/01 05:58:59;;;;;;;8.77;2.95;;;;;;;;;;2074318;28;20882;-83
2023/02/01 06:00:18;;;;;;;5.03;2.22;;;;;;;;;;2081558;28;20040;-85
2023/02/01 06:01:40;;;;;;;8.65;2.30;;;;;;;;;;2085971;28;20032;-85
2023/02/01 06:02:59;;;;;;;8.38;2.80;;;;;;;;;;2080644;28;20450;-88
2023/02/01 06:04:18;;;;;;;7.97;2.72;;;;;;;;;;2085061;28;20057;-86
2023/02/01 06:05:38;;;;;;;7.60;3.13;;;;;;;;;;2082233;28;20037;-87
2023/02/01 06:06:57;;;;;;;6.72;2.80;;;;;;;;;;2079854;28;20021;-81
2023/02/01 06:08:17;;;;;;;11.50;3.28;;;;;;;;;;2084813;28;20060;-82
2023/02/01 06:09:36;;;;;;;12.82;3.13;;;;;;;;;;2085749;28;20018;-85
2023/02/01 06:11:00;;;;;;;9.27;2.58;;;;;;;;;;2082930;28;20409;-86
2023/02/01 06:12:19;;;;;;;8.90;3.08;;;;;;;;;;2088726;28;20025;-83
2023/02/01 06:13:38;;;;;;;5.68;2.42;;;;;;;;;;2083249;28;20033;-82
2023/02/01 06:14:58;;;;;;;16.65;3.97;;;;;;;;;;2089660;28;20060;-80
2023/02/01 06:16:17;;;;;;;124.50;57.63;;;;;;;;;;2082823;28;20029;-82
2023/02/01 06:17:37;;;;;;;7.47;2.63;;;;;;;;;;2083966;28;20066;-82
2023/02/01 06:18:56;;;;;;;11.90;3.53;;;;;;;;;;2081988;28;20490;-81
2023/02/01 06:20:15;;;;;;;13.77;3.15;;;;;;;;;;2082162;28;20033;-82
2023/02/01 06:21:35;;;;;;;10.88;2.88;;;;;;;;;;2077414;28;20529;-86
2023/02/01 06:22:55;;;;;;;5.00;2.95;;;;;;;;;;2083465;28;20033;-83
2023/02/01 06:24:13;;;;;;;7.28;2.85;;;;;;;;;;2079401;28;20045;-84
2023/02/01 06:25:32;;;;;;;11.88;3.00;;;;;;;;;;2080705;28;20034;-82
2023/02/01 06:26:52;;;;;;;4.75;2.50;;;;;;;;;;2078274;28;20022;-82
2023/02/01 06:28:10;;;;;;;8.90;2.85;;;;;;;;;;2084858;28;20021;-84
2023/02/01 06:29:29;;;;;;;6.95;3.20;;;;;;;;;;2082415;28;20033;-84
2023/02/01 06:30:48;;;;;;;5.75;3.42;;;;;;;;;;2087815;28;20053;-82
2023/02/01 06:32:07;;;;;;;6.20;2.92;;;;;;;;;;2086621;28;20409;-83
2023/02/01 06:33:26;;;;;;;7.07;2.08;;;;;;;;;;2086108;28;20033;-84
2023/02/01 06:34:45;;;;;;;9.27;2.90;;;;;;;;;;2088518;28;20116;-87
2023/02/01 06:36:18;;;;;;;15.73;2.88;;;;;;;;;;2087806;28;20030;-86
2023/02/01 06:37:40;;;;;;;5.97;2.60;;;;;;;;;;2086067;28;20025;-87
2023/02/01 06:39:04;;;;;;;12.23;3.00;;;;;;;;;;2084424;28;20088;-88
2023/02/01 06:40:27;;;;;;;8.65;3.00;;;;;;;;;;2087801;28;20064;-85
2023/02/01 06:41:46;;;;;;;8.60;2.42;;;;;;;;;;2083192;28;20108;-89
2023/02/01 06:43:06;;;;;;;10.65;2.67;;;;;;;;;;2089209;28;20017;-89
2023/02/01 06:44:25;;;;;;;6.00;2.00;;;;;;;;;;2086446;28;20033;-91
2023/02/01 06:45:44;;;;;;;10.68;2.35;;;;;;;;;;2087312;28;20021;-91
2023/02/01 06:47:06;;;;;;;4.88;2.20;;;;;;;;;;2084477;28;20025;-87
2023/02/01 06:48:26;;;;;;;7.68;2.45;;;;;;;;;;2084150;28;20124;-85
2023/02/01 06:49:44;;;;;;;9.43;3.10;;;;;;;;;;2083865;28;20139;-90
2023/02/01 06:51:04;;;;;;;7.75;2.60;;;;;;;;;;2081434;28;20096;-91
2023/02/01 06:52:23;;;;;;;9.82;2.72;;;;;;;;;;2082600;28;20029;-90
2023/02/01 06:53:43;;;;;;;6.93;3.13;;;;;;;;;;2091252;28;20041;-90
2023/02/01 06:55:02;;;;;;;10.50;2.60;;;;;;;;;;2086485;28;21556;-86
2023/02/01 06:56:23;;;;;;;7.72;3.20;;;;;;;;;;2083327;28;20030;-84
2023/02/01 06:57:42;;;;;;;5.32;2.13;;;;;;;;;;2081449;28;21249;-83
2023/02/01 06:59:03;;;;;;;5.97;2.70;;;;;;;;;;2080021;28;20037;-81
2023/02/01 07:00:22;;;;;;;6.43;2.55;;;;;;;;;;2079705;28;20033;-81
2023/02/01 07:01:42;;;;;;;7.45;2.33;;;;;;;;;;2085105;28;20033;-80
2023/02/01 07:03:02;;;;;;;6.25;2.58;;;;;;;;;;2082306;28;20029;-80
2023/02/01 07:04:21;;;;;;;8.85;3.10;;;;;;;;;;2083316;28;20022;-79
2023/02/01 07:05:40;;;;;;;3.72;2.38;;;;;;;;;;2079882;28;20021;-80
2023/02/01 07:07:00;;;;;;;9.38;2.83;;;;;;;;;;2086805;28;20029;-81
2023/02/01 07:08:19;;;;;;;12.35;2.70;;;;;;;;;;2084533;28;20486;-81
2023/02/01 07:09:38;;;;;;;9.40;2.53;;;;;;;;;;2083547;28;20029;-81
2023/02/01 07:11:05;;;;;;;5.28;2.25;;;;;;;;;;2082829;28;20393;-80
2023/02/01 07:12:24;;;;;;;7.80;2.30;;;;;;;;;;2081129;28;20037;-80
2023/02/01 07:13:43;;;;;;;7.80;2.50;;;;;;;;;;2085217;28;20192;-81
2023/02/01 07:15:02;;;;;;;6.70;2.78;;;;;;;;;;2085904;28;20386;-80
2023/02/01 07:16:21;;;;;;;7.20;2.50;;;;;;;;;;2083009;28;20038;-80
2023/02/01 07:17:40;;;;;;;7.30;2.88;;;;;;;;;;2081032;28;20029;-81
2023/02/01 07:18:59;;;;;;;7.85;2.60;;;;;;;;;;2081688;28;20025;-82
2023/02/01 07:20:18;;;;;;;6.75;2.80;;;;;;;;;;2088841;28;20044;-81
2023/02/01 07:21:37;;;;;;;4.80;2.33;;;;;;;;;;2083331;28;20497;-80
2023/02/01 07:22:56;;;;;;;11.93;2.80;;;;;;;;;;2086626;28;20030;-82
2023/02/01 07:24:18;;;;;;;11.25;2.28;;;;;;;;;;2086183;28;20041;-85
2023/02/01 07:25:37;;;;;;;9.02;2.58;;;;;;;;;;2088214;28;20041;-83
2023/02/01 07:26:56;;;;;;;8.98;2.88;;;;;;;;;;2081268;28;20025;-80
2023/02/01 07:28:17;;;;;;;7.13;2.13;;;;;;;;;;2078226;28;20924;-84
2023/02/01 07:29:36;;;;;;;7.68;2.30;;;;;;;;;;2078157;28;20022;-81
2023/02/01 07:31:01;;;;;;;9.15;2.50;;;;;;;;;;2080687;28;20373;-83
2023/02/01 07:32:20;;;;;;;5.50;2.25;;;;;;;;;;2078932;28;20173;-82
2023/02/01 07:33:39;;;;;;;6.00;2.40;;;;;;;;;;2082357;28;20116;-80
2023/02/01 07:34:58;;;;;;;6.25;2.63;;;;;;;;;;2082096;28;20033;-81
2023/02/01 07:36:17;;;;;;;5.05;2.25;;;;;;;;;;2083636;28;20033;-80
2023/02/01 07:37:37;;;;;;;9.35;3.05;;;;;;;;;;2086753;28;20033;-80
2023/02/01 07:38:57;;;;;;;9.10;2.45;;;;;;;;;;2081521;28;20033;-82
2023/02/01 07:40:15;;;;;;;5.43;2.83;;;;;;;;;;2084756;28;20480;-81
2023/02/01 07:41:34;;;;;;;6.55;2.33;;;;;;;;;;2085517;28;20041;-81
2023/02/01 07:42:56;;;;;;;9.70;2.47;;;;;;;;;;2080641;28;20026;-83
2023/02/01 07:44:16;;;;;;;5.18;2.50;;;;;;;;;;2079940;28;20140;-82
2023/02/01 07:45:36;;;;;;;8.57;2.25;;;;;;;;;;2081519;28;20049;-81
2023/02/01 07:46:55;;;;;;;5.55;2.70;;;;;;;;;;2080574;28;20037;-79
2023/02/01 07:48:16;;;;;;;5.50;2.17;;;;;;;;;;2083686;28;20065;-83
2023/02/01 07:49:35;;;;;;;7.05;2.58;;;;;;;;;;2085870;28;20052;-83
2023/02/01 07:51:01;;;;;;;7.75;2.30;;;;;;;;;;2081755;28;20025;-82
2023/02/01 07:52:20;;;;;;;4.93;2.33;;;;;;;;;;2078521;28;20104;-82
2023/02/01 07:53:40;;;;;;;5.63;2.20;;;;;;;;;;2077274;28;20022;-83
2023/02/01 07:54:59;;;;;;;4.10;2.20;;;;;;;;;;2080894;28;20037;-82
2023/02/01 07:56:19;;;;;;;8.23;2.30;;;;;;;;;;2081851;28;20029;-82
2023/02/01 07:57:38;;;;;;;7.72;2.03;;;;;;;;;;2082617;28;20029;-81
2023/02/01 07:58:59;;;;;;;14.75;2.50;;;;;;;;;;2082398;28;20029;-83
2023/02/01 08:01:56;;;;;;;9.00;2.55;;;;;;;;;;2084647;28;20076;-82
2023/02/01 08:03:15;;;;;;;11.35;3.20;;;;;;;;;;2086551;28;20030;-85
2023/02/01 08:04:34;;;;;;;10.32;2.83;;;;;;;;;;2088238;28;20104;-85
2023/02/01 08:05:55;;;;;;;10.60;2.70;;;;;;;;;;2078889;28;20037;-84
2023/02/01 08:07:15;;;;;;;7.85;2.45;;;;;;;;;;2081227;28;20033;-86
2023/02/01 08:08:34;;;;;;;4.68;1.95;;;;;;;;;;2085726;28;20017;-85
2023/02/01 08:09:53;;;;;;;12.68;2.28;;;;;;;;;;2084076;28;20057;-83
2023/02/01 08:11:12;;;;;;;7.72;2.65;;;;;;;;;;2083908;28;20017;-85
2023/02/01 08:12:31;;;;;;;6.22;2.28;;;;;;;;;;2083272;28;20390;-84
2023/02/01 08:13:50;;;;;;;4.10;2.10;;;;;;;;;;2083515;28;20483;-84
2023/02/01 08:15:09;;;;;;;7.78;2.00;;;;;;;;;;2084115;28;20026;-83
2023/02/01 08:16:28;;;;;;;7.53;2.13;;;;;;;;;;2082605;28;20037;-83
2023/02/01 08:17:50;;;;;;;4.03;1.75;;;;;;;;;;2085144;28;20029;-82
2023/02/01 08:19:09;;;;;;;6.53;2.30;;;;;;;;;;2085878;28;20033;-84
2023/02/01 08:20:28;;;;;;;5.60;2.20;;;;;;;;;;2084600;28;20061;-83
2023/02/01 08:21:48;;;;;;;5.60;1.80;;;;;;;;;;2084167;28;20490;-82
2023/02/01 08:23:08;;;;;;;3.13;2.10;;;;;;;;;;2085249;28;20033;-83
2023/02/01 08:24:27;;;;;;;11.82;2.40;;;;;;;;;;2082272;28;20050;-83
2023/02/01 08:25:46;;;;;;;7.15;2.25;;;;;;;;;;2084786;28;20021;-84
2023/02/01 08:27:05;;;;;;;4.45;2.22;;;;;;;;;;2080487;28;20120;-84